Ovda, Israel
Current Conditions -  °F | °C
As of 10:50 AM on Friday 19 Dec 2014 (Local Time) from LLET Reporting Station
Clear Clear  
Wind Chill: 72°   Ceiling: Unl
Heat Index: 72°   Visibility: 6mi
Dew Point: 46°   Wind: 12mph
Humidity: 41%   Direction: 50°NE
Pressure: 30.12"   Gusts: NA
Location:  30°N, 34.83°E
Report Text: LLET 190750Z 05010KT CAVOK 22/08 Q1020
Loading
Personal Weather Stations






























Interactive Weather Map New forecast layout! Learn more

10-Day Weather Forecast

Advertisements
Track Severe Weather on mobile